sensor_id;sensor_type;location;lat;lon;timestamp;temperature;humidity
1347;DHT22;667;48.796;9.480;2023-01-28T00:01:47;4.70;71.20
1347;DHT22;667;48.796;9.480;2023-01-28T00:04:12;4.70;71.40
1347;DHT22;667;48.796;9.480;2023-01-28T00:06:38;4.70;71.60
1347;DHT22;667;48.796;9.480;2023-01-28T00:09:04;4.70;71.80
1347;DHT22;667;48.796;9.480;2023-01-28T00:11:30;4.70;71.80
1347;DHT22;667;48.796;9.480;2023-01-28T00:13:56;4.70;71.50
1347;DHT22;667;48.796;9.480;2023-01-28T00:16:21;4.70;71.40
1347;DHT22;667;48.796;9.480;2023-01-28T00:18:47;4.70;71.40
1347;DHT22;667;48.796;9.480;2023-01-28T00:21:14;4.70;71.50
1347;DHT22;667;48.796;9.480;2023-01-28T00:23:41;4.80;71.70
1347;DHT22;667;48.796;9.480;2023-01-28T00:26:11;4.70;71.50
1347;DHT22;667;48.796;9.480;2023-01-28T00:28:37;4.80;71.50
1347;DHT22;667;48.796;9.480;2023-01-28T00:31:25;4.70;71.20
1347;DHT22;667;48.796;9.480;2023-01-28T00:33:52;4.70;71.20
1347;DHT22;667;48.796;9.480;2023-01-28T00:36:19;4.70;71.10
1347;DHT22;667;48.796;9.480;2023-01-28T00:38:49;4.70;71.00
1347;DHT22;667;48.796;9.480;2023-01-28T00:41:16;4.80;71.40
1347;DHT22;667;48.796;9.480;2023-01-28T00:43:43;4.70;71.20
1347;DHT22;667;48.796;9.480;2023-01-28T00:46:12;4.70;71.20
1347;DHT22;667;48.796;9.480;2023-01-28T00:48:41;4.70;71.20
1347;DHT22;667;48.796;9.480;2023-01-28T00:51:10;4.70;71.20
1347;DHT22;667;48.796;9.480;2023-01-28T00:53:36;4.70;71.00
1347;DHT22;667;48.796;9.480;2023-01-28T00:56:04;4.70;71.00
1347;DHT22;667;48.796;9.480;2023-01-28T00:58:30;4.70;71.00
1347;DHT22;667;48.796;9.480;2023-01-28T01:00:56;4.70;71.10
1347;DHT22;667;48.796;9.480;2023-01-28T01:03:21;4.70;71.20
1347;DHT22;667;48.796;9.480;2023-01-28T01:05:47;4.70;71.20
1347;DHT22;667;48.796;9.480;2023-01-28T01:08:12;4.70;71.20
1347;DHT22;667;48.796;9.480;2023-01-28T01:10:39;4.70;71.30
1347;DHT22;667;48.796;9.480;2023-01-28T01:13:05;4.70;71.40
1347;DHT22;667;48.796;9.480;2023-01-28T01:15:32;4.70;71.40
1347;DHT22;667;48.796;9.480;2023-01-28T01:17:57;4.70;71.40
1347;DHT22;667;48.796;9.480;2023-01-28T01:20:25;4.70;71.50
1347;DHT22;667;48.796;9.480;2023-01-28T01:22:51;4.80;71.80
1347;DHT22;667;48.796;9.480;2023-01-28T01:25:17;4.70;71.90
1347;DHT22;667;48.796;9.480;2023-01-28T01:27:44;4.80;71.90
1347;DHT22;667;48.796;9.480;2023-01-28T01:30:12;4.80;71.90
1347;DHT22;667;48.796;9.480;2023-01-28T01:32:38;4.80;71.80
1347;DHT22;667;48.796;9.480;2023-01-28T01:35:04;4.80;71.80
1347;DHT22;667;48.796;9.480;2023-01-28T01:37:33;4.80;71.60
1347;DHT22;667;48.796;9.480;2023-01-28T01:39:58;4.80;71.50
1347;DHT22;667;48.796;9.480;2023-01-28T01:42:26;4.70;71.10
1347;DHT22;667;48.796;9.480;2023-01-28T01:45:02;4.70;71.10
1347;DHT22;667;48.796;9.480;2023-01-28T01:50:54;4.70;71.40
1347;DHT22;667;48.796;9.480;2023-01-28T01:53:22;4.70;71.40
1347;DHT22;667;48.796;9.480;2023-01-28T01:55:51;4.70;71.30
1347;DHT22;667;48.796;9.480;2023-01-28T01:58:20;4.70;71.20
1347;DHT22;667;48.796;9.480;2023-01-28T02:00:47;4.70;71.20
1347;DHT22;667;48.796;9.480;2023-01-28T02:03:14;4.80;71.50
1347;DHT22;667;48.796;9.480;2023-01-28T02:05:41;4.80;71.60
1347;DHT22;667;48.796;9.480;2023-01-28T02:08:07;4.80;71.80
1347;DHT22;667;48.796;9.480;2023-01-28T02:10:53;4.80;72.10
1347;DHT22;667;48.796;9.480;2023-01-28T02:13:24;4.80;72.40
1347;DHT22;667;48.796;9.480;2023-01-28T02:15:51;4.80;72.70
1347;DHT22;667;48.796;9.480;2023-01-28T02:18:17;4.80;72.90
1347;DHT22;667;48.796;9.480;2023-01-28T02:29:49;4.80;73.40
1347;DHT22;667;48.796;9.480;2023-01-28T02:37:33;4.70;73.30
1347;DHT22;667;48.796;9.480;2023-01-28T02:40:11;4.70;73.60
1347;DHT22;667;48.796;9.480;2023-01-28T02:42:39;4.70;73.70
1347;DHT22;667;48.796;9.480;2023-01-28T02:45:18;4.70;73.90
1347;DHT22;667;48.796;9.480;2023-01-28T02:47:44;4.70;74.00
1347;DHT22;667;48.796;9.480;2023-01-28T02:50:22;4.70;74.10
1347;DHT22;667;48.796;9.480;2023-01-28T02:53:07;4.70;74.20
1347;DHT22;667;48.796;9.480;2023-01-28T02:59:00;4.70;74.40
1347;DHT22;667;48.796;9.480;2023-01-28T03:01:47;4.70;74.60
1347;DHT22;667;48.796;9.480;2023-01-28T03:04:22;4.70;74.70
1347;DHT22;667;48.796;9.480;2023-01-28T03:06:53;4.70;74.80
1347;DHT22;667;48.796;9.480;2023-01-28T03:09:21;4.70;74.80
1347;DHT22;667;48.796;9.480;2023-01-28T03:14:38;4.70;74.80
1347;DHT22;667;48.796;9.480;2023-01-28T03:20:24;4.70;74.50
1347;DHT22;667;48.796;9.480;2023-01-28T03:23:13;4.70;74.50
1347;DHT22;667;48.796;9.480;2023-01-28T03:26:00;4.70;74.40
1347;DHT22;667;48.796;9.480;2023-01-28T03:28:48;4.80;74.60
1347;DHT22;667;48.796;9.480;2023-01-28T03:31:34;4.80;74.60
1347;DHT22;667;48.796;9.480;2023-01-28T03:34:20;4.80;74.60
1347;DHT22;667;48.796;9.480;2023-01-28T03:37:04;4.80;74.40
1347;DHT22;667;48.796;9.480;2023-01-28T03:39:30;4.80;74.30
1347;DHT22;667;48.796;9.480;2023-01-28T03:44:22;4.80;74.20
1347;DHT22;667;48.796;9.480;2023-01-28T03:47:07;4.80;74.20
1347;DHT22;667;48.796;9.480;2023-01-28T03:49:33;4.80;74.30
1347;DHT22;667;48.796;9.480;2023-01-28T03:51:59;4.80;74.40
1347;DHT22;667;48.796;9.480;2023-01-28T03:54:24;4.80;74.50
1347;DHT22;667;48.796;9.480;2023-01-28T03:56:50;4.80;74.60
1347;DHT22;667;48.796;9.480;2023-01-28T03:59:15;4.80;74.60
1347;DHT22;667;48.796;9.480;2023-01-28T04:01:41;4.80;74.80
1347;DHT22;667;48.796;9.480;2023-01-28T04:04:06;4.80;74.90
1347;DHT22;667;48.796;9.480;2023-01-28T04:06:32;4.80;75.60
1347;DHT22;667;48.796;9.480;2023-01-28T04:08:58;4.80;75.00
1347;DHT22;667;48.796;9.480;2023-01-28T04:11:24;4.80;74.90
1347;DHT22;667;48.796;9.480;2023-01-28T04:13:51;4.80;75.00
1347;DHT22;667;48.796;9.480;2023-01-28T04:16:17;4.80;75.10
1347;DHT22;667;48.796;9.480;2023-01-28T04:18:43;4.80;75.30
1347;DHT22;667;48.796;9.480;2023-01-28T04:21:09;4.80;75.30
1347;DHT22;667;48.796;9.480;2023-01-28T04:23:35;4.80;75.40
1347;DHT22;667;48.796;9.480;2023-01-28T04:26:00;4.80;75.40
1347;DHT22;667;48.796;9.480;2023-01-28T04:28:26;4.80;75.40
1347;DHT22;667;48.796;9.480;2023-01-28T04:30:52;4.80;75.50
1347;DHT22;667;48.796;9.480;2023-01-28T04:33:18;4.80;75.50
1347;DHT22;667;48.796;9.480;2023-01-28T04:35:43;4.80;75.50
1347;DHT22;667;48.796;9.480;2023-01-28T04:38:09;4.80;75.60
1347;DHT22;667;48.796;9.480;2023-01-28T04:40:35;4.80;75.70
1347;DHT22;667;48.796;9.480;2023-01-28T04:43:00;4.80;75.70
1347;DHT22;667;48.796;9.480;2023-01-28T04:45:26;4.80;75.90
1347;DHT22;667;48.796;9.480;2023-01-28T04:47:51;4.80;76.60
1347;DHT22;667;48.796;9.480;2023-01-28T04:50:17;4.80;75.90
1347;DHT22;667;48.796;9.480;2023-01-28T04:52:42;4.80;76.00
1347;DHT22;667;48.796;9.480;2023-01-28T04:55:09;4.80;76.00
1347;DHT22;667;48.796;9.480;2023-01-28T04:57:35;4.80;76.00
1347;DHT22;667;48.796;9.480;2023-01-28T05:00:01;4.80;75.90
1347;DHT22;667;48.796;9.480;2023-01-28T05:02:26;4.80;75.90
1347;DHT22;667;48.796;9.480;2023-01-28T05:04:52;4.80;75.90
1347;DHT22;667;48.796;9.480;2023-01-28T05:07:17;4.80;75.90
1347;DHT22;667;48.796;9.480;2023-01-28T05:09:43;4.80;75.90
1347;DHT22;667;48.796;9.480;2023-01-28T05:12:08;4.70;76.00
1347;DHT22;667;48.796;9.480;2023-01-28T05:14:34;4.70;76.00
1347;DHT22;667;48.796;9.480;2023-01-28T05:16:59;4.70;76.00
1347;DHT22;667;48.796;9.480;2023-01-28T05:19:25;4.70;76.10
1347;DHT22;667;48.796;9.480;2023-01-28T05:21:51;4.70;76.10
1347;DHT22;667;48.796;9.480;2023-01-28T05:24:16;4.70;76.10
1347;DHT22;667;48.796;9.480;2023-01-28T05:26:42;4.70;76.10
1347;DHT22;667;48.796;9.480;2023-01-28T05:29:07;4.70;76.20
1347;DHT22;667;48.796;9.480;2023-01-28T05:31:33;4.70;76.20
1347;DHT22;667;48.796;9.480;2023-01-28T05:33:59;4.70;76.30
1347;DHT22;667;48.796;9.480;2023-01-28T05:36:25;4.70;76.10
1347;DHT22;667;48.796;9.480;2023-01-28T05:38:50;4.70;76.00
1347;DHT22;667;48.796;9.480;2023-01-28T05:41:16;4.70;76.00
1347;DHT22;667;48.796;9.480;2023-01-28T05:43:42;4.70;76.00
1347;DHT22;667;48.796;9.480;2023-01-28T05:46:07;4.70;76.10
1347;DHT22;667;48.796;9.480;2023-01-28T05:48:33;4.60;76.10
1347;DHT22;667;48.796;9.480;2023-01-28T05:50:58;4.60;76.20
1347;DHT22;667;48.796;9.480;2023-01-28T05:53:24;4.60;76.30
1347;DHT22;667;48.796;9.480;2023-01-28T05:55:51;4.60;76.40
1347;DHT22;667;48.796;9.480;2023-01-28T05:58:18;4.60;76.50
1347;DHT22;667;48.796;9.480;2023-01-28T06:00:44;4.60;76.50
1347;DHT22;667;48.796;9.480;2023-01-28T06:03:09;4.60;76.50
1347;DHT22;667;48.796;9.480;2023-01-28T06:05:35;4.60;76.60
1347;DHT22;667;48.796;9.480;2023-01-28T06:08:00;4.60;76.60
1347;DHT22;667;48.796;9.480;2023-01-28T06:10:26;4.60;76.50
1347;DHT22;667;48.796;9.480;2023-01-28T06:12:52;4.60;76.50
1347;DHT22;667;48.796;9.480;2023-01-28T06:15:17;4.60;76.60
1347;DHT22;667;48.796;9.480;2023-01-28T06:17:43;4.60;76.60
1347;DHT22;667;48.796;9.480;2023-01-28T06:20:09;4.60;76.70
1347;DHT22;667;48.796;9.480;2023-01-28T06:22:34;4.60;76.70
1347;DHT22;667;48.796;9.480;2023-01-28T06:25:00;4.60;76.80
1347;DHT22;667;48.796;9.480;2023-01-28T06:27:26;4.60;76.80
1347;DHT22;667;48.796;9.480;2023-01-28T06:29:52;4.60;76.80
1347;DHT22;667;48.796;9.480;2023-01-28T06:32:17;4.60;77.00
1347;DHT22;667;48.796;9.480;2023-01-28T06:34:43;4.60;77.00
1347;DHT22;667;48.796;9.480;2023-01-28T06:37:12;4.60;77.00
1347;DHT22;667;48.796;9.480;2023-01-28T06:39:37;4.70;77.10
1347;DHT22;667;48.796;9.480;2023-01-28T06:42:03;4.70;77.10
1347;DHT22;667;48.796;9.480;2023-01-28T06:44:29;4.70;77.20
1347;DHT22;667;48.796;9.480;2023-01-28T06:46:54;4.70;77.30
1347;DHT22;667;48.796;9.480;2023-01-28T06:49:20;4.70;77.20
1347;DHT22;667;48.796;9.480;2023-01-28T06:51:46;4.70;77.20
1347;DHT22;667;48.796;9.480;2023-01-28T06:54:12;4.70;77.20
1347;DHT22;667;48.796;9.480;2023-01-28T06:56:37;4.70;77.20
1347;DHT22;667;48.796;9.480;2023-01-28T06:59:03;4.70;77.20
1347;DHT22;667;48.796;9.480;2023-01-28T07:01:29;4.70;77.20
1347;DHT22;667;48.796;9.480;2023-01-28T07:03:55;4.70;77.20
1347;DHT22;667;48.796;9.480;2023-01-28T07:06:21;4.70;77.20
1347;DHT22;667;48.796;9.480;2023-01-28T07:08:47;4.70;77.20
1347;DHT22;667;48.796;9.480;2023-01-28T07:11:12;4.70;77.20
1347;DHT22;667;48.796;9.480;2023-01-28T07:13:38;4.70;77.30
1347;DHT22;667;48.796;9.480;2023-01-28T07:16:03;4.70;77.30
1347;DHT22;667;48.796;9.480;2023-01-28T07:18:29;4.70;77.40
1347;DHT22;667;48.796;9.480;2023-01-28T07:20:55;4.70;77.40
1347;DHT22;667;48.796;9.480;2023-01-28T07:23:21;4.70;77.30
1347;DHT22;667;48.796;9.480;2023-01-28T07:25:47;4.70;77.30
1347;DHT22;667;48.796;9.480;2023-01-28T07:28:14;4.70;77.30
1347;DHT22;667;48.796;9.480;2023-01-28T07:30:48;4.70;77.90
1347;DHT22;667;48.796;9.480;2023-01-28T07:33:15;4.70;77.20
1347;DHT22;667;48.796;9.480;2023-01-28T07:35:40;4.70;77.20
1347;DHT22;667;48.796;9.480;2023-01-28T07:38:06;4.70;77.20
1347;DHT22;667;48.796;9.480;2023-01-28T07:40:31;4.70;77.30
1347;DHT22;667;48.796;9.480;2023-01-28T07:42:57;4.70;77.30
1347;DHT22;667;48.796;9.480;2023-01-28T07:45:24;4.70;77.30
1347;DHT22;667;48.796;9.480;2023-01-28T07:47:57;4.70;77.30
1347;DHT22;667;48.796;9.480;2023-01-28T07:50:23;4.70;77.30
1347;DHT22;667;48.796;9.480;2023-01-28T07:52:49;4.70;77.30
1347;DHT22;667;48.796;9.480;2023-01-28T07:55:15;4.70;77.30
1347;DHT22;667;48.796;9.480;2023-01-28T07:58:08;4.70;77.30
1347;DHT22;667;48.796;9.480;2023-01-28T08:00:36;4.80;77.40
1347;DHT22;667;48.796;9.480;2023-01-28T08:03:08;4.80;77.40
1347;DHT22;667;48.796;9.480;2023-01-28T08:05:46;4.80;77.40
1347;DHT22;667;48.796;9.480;2023-01-28T08:08:12;4.80;77.50
1347;DHT22;667;48.796;9.480;2023-01-28T08:10:38;4.80;77.50
1347;DHT22;667;48.796;9.480;2023-01-28T08:13:04;4.80;77.50
1347;DHT22;667;48.796;9.480;2023-01-28T08:15:31;4.80;77.70
1347;DHT22;667;48.796;9.480;2023-01-28T08:17:57;4.80;77.70
1347;DHT22;667;48.796;9.480;2023-01-28T08:20:24;4.80;77.60
1347;DHT22;667;48.796;9.480;2023-01-28T08:22:50;4.80;77.50
1347;DHT22;667;48.796;9.480;2023-01-28T08:25:15;4.90;77.50
1347;DHT22;667;48.796;9.480;2023-01-28T08:27:41;4.90;77.50
1347;DHT22;667;48.796;9.480;2023-01-28T08:30:07;4.90;77.70
1347;DHT22;667;48.796;9.480;2023-01-28T08:32:34;4.90;77.60
1347;DHT22;667;48.796;9.480;2023-01-28T08:35:00;4.90;77.70
1347;DHT22;667;48.796;9.480;2023-01-28T08:37:26;4.90;77.70
1347;DHT22;667;48.796;9.480;2023-01-28T08:39:51;5.00;77.80
1347;DHT22;667;48.796;9.480;2023-01-28T08:42:17;5.00;77.80
1347;DHT22;667;48.796;9.480;2023-01-28T08:44:43;5.00;77.70
1347;DHT22;667;48.796;9.480;2023-01-28T08:47:08;5.00;77.80
1347;DHT22;667;48.796;9.480;2023-01-28T08:49:34;5.00;77.70
1347;DHT22;667;48.796;9.480;2023-01-28T08:51:59;5.10;77.80
1347;DHT22;667;48.796;9.480;2023-01-28T08:54:25;5.10;77.70
1347;DHT22;667;48.796;9.480;2023-01-28T08:56:51;5.10;77.60
1347;DHT22;667;48.796;9.480;2023-01-28T08:59:17;5.20;77.60
1347;DHT22;667;48.796;9.480;2023-01-28T09:01:43;5.20;77.60
1347;DHT22;667;48.796;9.480;2023-01-28T09:04:08;5.20;77.50
1347;DHT22;667;48.796;9.480;2023-01-28T09:06:34;5.20;77.20
1347;DHT22;667;48.796;9.480;2023-01-28T09:09:00;5.20;77.00
1347;DHT22;667;48.796;9.480;2023-01-28T09:11:27;5.30;76.90
1347;DHT22;667;48.796;9.480;2023-01-28T09:13:52;5.30;76.80
1347;DHT22;667;48.796;9.480;2023-01-28T09:16:18;5.30;76.60
1347;DHT22;667;48.796;9.480;2023-01-28T09:18:44;5.40;76.50
1347;DHT22;667;48.796;9.480;2023-01-28T09:21:10;5.40;76.20
1347;DHT22;667;48.796;9.480;2023-01-28T09:23:36;5.40;76.10
1347;DHT22;667;48.796;9.480;2023-01-28T09:26:03;5.40;75.90
1347;DHT22;667;48.796;9.480;2023-01-28T09:28:29;5.40;75.90
1347;DHT22;667;48.796;9.480;2023-01-28T09:31:05;5.50;75.80
1347;DHT22;667;48.796;9.480;2023-01-28T09:33:31;5.50;75.50
1347;DHT22;667;48.796;9.480;2023-01-28T09:36:02;5.50;75.40
1347;DHT22;667;48.796;9.480;2023-01-28T09:38:29;5.50;75.30
1347;DHT22;667;48.796;9.480;2023-01-28T09:40:55;5.50;75.30
1347;DHT22;667;48.796;9.480;2023-01-28T09:45:51;5.60;75.10
1347;DHT22;667;48.796;9.480;2023-01-28T09:48:35;5.60;74.90
1347;DHT22;667;48.796;9.480;2023-01-28T09:51:03;5.60;74.80
1347;DHT22;667;48.796;9.480;2023-01-28T09:53:36;5.60;74.60
1347;DHT22;667;48.796;9.480;2023-01-28T09:56:10;5.60;74.50
1347;DHT22;667;48.796;9.480;2023-01-28T09:58:37;5.60;75.10
1347;DHT22;667;48.796;9.480;2023-01-28T10:01:34;5.60;74.20
1347;DHT22;667;48.796;9.480;2023-01-28T10:09:51;5.60;73.90
1347;DHT22;667;48.796;9.480;2023-01-28T10:12:26;5.60;73.40
1347;DHT22;667;48.796;9.480;2023-01-28T10:17:44;5.60;73.20
1347;DHT22;667;48.796;9.480;2023-01-28T10:20:17;5.60;73.00
1347;DHT22;667;48.796;9.480;2023-01-28T10:22:54;5.50;72.90
1347;DHT22;667;48.796;9.480;2023-01-28T10:25:23;5.60;73.20
1347;DHT22;667;48.796;9.480;2023-01-28T10:27:50;5.50;73.00
1347;DHT22;667;48.796;9.480;2023-01-28T10:33:02;5.50;72.90
1347;DHT22;667;48.796;9.480;2023-01-28T10:35:47;5.50;72.90
1347;DHT22;667;48.796;9.480;2023-01-28T10:38:16;5.60;73.00
1347;DHT22;667;48.796;9.480;2023-01-28T10:40:44;5.60;72.80
1347;DHT22;667;48.796;9.480;2023-01-28T10:43:20;5.60;72.70
1347;DHT22;667;48.796;9.480;2023-01-28T10:48:29;5.60;72.60
1347;DHT22;667;48.796;9.480;2023-01-28T10:50:59;5.60;72.70
1347;DHT22;667;48.796;9.480;2023-01-28T10:53:34;5.60;72.80
1347;DHT22;667;48.796;9.480;2023-01-28T10:56:01;5.50;72.70
1347;DHT22;667;48.796;9.480;2023-01-28T10:58:30;5.60;72.80
1347;DHT22;667;48.796;9.480;2023-01-28T11:00:59;5.50;72.70
1347;DHT22;667;48.796;9.480;2023-01-28T11:03:25;5.60;72.90
1347;DHT22;667;48.796;9.480;2023-01-28T11:05:53;5.60;72.90
1347;DHT22;667;48.796;9.480;2023-01-28T11:08:20;5.60;72.90
1347;DHT22;667;48.796;9.480;2023-01-28T11:10:46;5.60;72.90
1347;DHT22;667;48.796;9.480;2023-01-28T11:16:13;5.60;73.00
1347;DHT22;667;48.796;9.480;2023-01-28T11:18:48;5.60;73.10
1347;DHT22;667;48.796;9.480;2023-01-28T11:21:18;5.60;72.90
1347;DHT22;667;48.796;9.480;2023-01-28T11:23:58;5.60;72.90
1347;DHT22;667;48.796;9.480;2023-01-28T11:26:27;5.60;73.00
1347;DHT22;667;48.796;9.480;2023-01-28T11:28:54;5.70;73.10
1347;DHT22;667;48.796;9.480;2023-01-28T11:31:22;5.70;73.00
1347;DHT22;667;48.796;9.480;2023-01-28T11:33:56;5.70;73.00
1347;DHT22;667;48.796;9.480;2023-01-28T11:36:27;5.70;73.00
1347;DHT22;667;48.796;9.480;2023-01-28T11:38:54;5.70;73.00
1347;DHT22;667;48.796;9.480;2023-01-28T11:41:38;5.70;73.10
1347;DHT22;667;48.796;9.480;2023-01-28T11:44:27;5.70;73.00
1347;DHT22;667;48.796;9.480;2023-01-28T11:58:18;5.70;73.10
1347;DHT22;667;48.796;9.480;2023-01-28T12:06:27;5.70;72.90
1347;DHT22;667;48.796;9.480;2023-01-28T12:08:58;5.70;73.00
1347;DHT22;667;48.796;9.480;2023-01-28T12:11:32;5.70;72.90
1347;DHT22;667;48.796;9.480;2023-01-28T12:25:27;5.70;72.90
1347;DHT22;667;48.796;9.480;2023-01-28T12:42:45;5.70;73.20
1347;DHT22;667;48.796;9.480;2023-01-28T12:45:37;5.70;73.30
1347;DHT22;667;48.796;9.480;2023-01-28T12:48:26;5.70;73.30
1347;DHT22;667;48.796;9.480;2023-01-28T12:51:09;5.70;73.30
1347;DHT22;667;48.796;9.480;2023-01-28T12:54:03;5.80;73.60
1347;DHT22;667;48.796;9.480;2023-01-28T12:56:36;5.80;73.60
1347;DHT22;667;48.796;9.480;2023-01-28T12:59:18;5.70;73.40
1347;DHT22;667;48.796;9.480;2023-01-28T13:10:09;5.80;73.50
1347;DHT22;667;48.796;9.480;2023-01-28T13:14:39;5.80;73.60
1347;DHT22;667;48.796;9.480;2023-01-28T13:17:22;5.80;73.60
1347;DHT22;667;48.796;9.480;2023-01-28T13:19:48;5.80;73.70
1347;DHT22;667;48.796;9.480;2023-01-28T13:22:28;5.90;73.70
1347;DHT22;667;48.796;9.480;2023-01-28T13:24:53;5.90;73.70
1347;DHT22;667;48.796;9.480;2023-01-28T13:27:25;5.90;73.70
1347;DHT22;667;48.796;9.480;2023-01-28T13:30:28;5.90;73.90
1347;DHT22;667;48.796;9.480;2023-01-28T13:33:02;5.90;74.10
1347;DHT22;667;48.796;9.480;2023-01-28T13:35:37;5.90;74.10
1347;DHT22;667;48.796;9.480;2023-01-28T13:38:15;5.90;74.20
1347;DHT22;667;48.796;9.480;2023-01-28T13:40:42;5.80;74.30
1347;DHT22;667;48.796;9.480;2023-01-28T13:43:34;5.80;74.50
1347;DHT22;667;48.796;9.480;2023-01-28T13:46:06;5.80;74.80
1347;DHT22;667;48.796;9.480;2023-01-28T13:51:32;5.80;75.40
1347;DHT22;667;48.796;9.480;2023-01-28T13:54:07;5.80;75.70
1347;DHT22;667;48.796;9.480;2023-01-28T14:02:16;5.80;76.30
1347;DHT22;667;48.796;9.480;2023-01-28T14:07:26;5.80;76.50
1347;DHT22;667;48.796;9.480;2023-01-28T14:10:33;5.80;76.50
1347;DHT22;667;48.796;9.480;2023-01-28T14:15:54;5.80;76.60
1347;DHT22;667;48.796;9.480;2023-01-28T14:18:33;5.70;76.50
1347;DHT22;667;48.796;9.480;2023-01-28T14:21:02;5.70;76.40
1347;DHT22;667;48.796;9.480;2023-01-28T14:23:28;5.70;76.40
1347;DHT22;667;48.796;9.480;2023-01-28T14:26:17;5.70;76.40
1347;DHT22;667;48.796;9.480;2023-01-28T14:28:49;5.70;76.30
1347;DHT22;667;48.796;9.480;2023-01-28T14:31:33;5.70;76.20
1347;DHT22;667;48.796;9.480;2023-01-28T14:34:08;5.70;76.20
1347;DHT22;667;48.796;9.480;2023-01-28T14:36:40;5.70;76.20
1347;DHT22;667;48.796;9.480;2023-01-28T14:39:18;5.80;76.20
1347;DHT22;667;48.796;9.480;2023-01-28T14:41:47;5.80;75.70
1347;DHT22;667;48.796;9.480;2023-01-28T14:44:37;5.80;75.40
1347;DHT22;667;48.796;9.480;2023-01-28T14:58:51;5.70;74.20
1347;DHT22;667;48.796;9.480;2023-01-28T15:01:23;5.70;74.00
1347;DHT22;667;48.796;9.480;2023-01-28T15:03:50;5.60;73.80
1347;DHT22;667;48.796;9.480;2023-01-28T15:06:18;5.60;73.70
1347;DHT22;667;48.796;9.480;2023-01-28T15:08:52;5.60;73.40
1347;DHT22;667;48.796;9.480;2023-01-28T15:11:23;5.60;73.20
1347;DHT22;667;48.796;9.480;2023-01-28T15:13:53;5.60;73.30
1347;DHT22;667;48.796;9.480;2023-01-28T15:16:25;5.70;73.20
1347;DHT22;667;48.796;9.480;2023-01-28T15:18:53;5.70;73.10
1347;DHT22;667;48.796;9.480;2023-01-28T15:21:21;5.70;73.10
1347;DHT22;667;48.796;9.480;2023-01-28T15:24:09;5.70;73.10
1347;DHT22;667;48.796;9.480;2023-01-28T15:26:36;5.70;73.20
1347;DHT22;667;48.796;9.480;2023-01-28T15:29:02;5.70;73.30
1347;DHT22;667;48.796;9.480;2023-01-28T15:31:33;5.70;73.40
1347;DHT22;667;48.796;9.480;2023-01-28T15:36:28;5.70;73.50
1347;DHT22;667;48.796;9.480;2023-01-28T15:38:55;5.70;73.50
1347;DHT22;667;48.796;9.480;2023-01-28T15:41:25;5.70;73.50
1347;DHT22;667;48.796;9.480;2023-01-28T15:43:53;5.70;73.50
1347;DHT22;667;48.796;9.480;2023-01-28T15:46:18;5.70;73.50
1347;DHT22;667;48.796;9.480;2023-01-28T15:48:49;5.70;73.40
1347;DHT22;667;48.796;9.480;2023-01-28T15:51:31;5.70;73.50
1347;DHT22;667;48.796;9.480;2023-01-28T15:54:02;5.70;73.40
1347;DHT22;667;48.796;9.480;2023-01-28T15:56:29;5.70;73.30
1347;DHT22;667;48.796;9.480;2023-01-28T15:58:55;5.70;73.20
1347;DHT22;667;48.796;9.480;2023-01-28T16:01:31;5.70;72.90
1347;DHT22;667;48.796;9.480;2023-01-28T16:04:24;5.70;72.60
1347;DHT22;667;48.796;9.480;2023-01-28T16:06:50;5.70;72.80
1347;DHT22;667;48.796;9.480;2023-01-28T16:09:28;5.70;72.50
1347;DHT22;667;48.796;9.480;2023-01-28T16:12:07;5.70;72.20
1347;DHT22;667;48.796;9.480;2023-01-28T16:14:42;5.70;72.40
1347;DHT22;667;48.796;9.480;2023-01-28T16:17:10;5.60;72.50
1347;DHT22;667;48.796;9.480;2023-01-28T16:19:42;5.70;72.70
1347;DHT22;667;48.796;9.480;2023-01-28T16:22:19;5.70;72.70
1347;DHT22;667;48.796;9.480;2023-01-28T16:24:50;5.70;72.70
1347;DHT22;667;48.796;9.480;2023-01-28T16:27:22;5.60;72.50
1347;DHT22;667;48.796;9.480;2023-01-28T16:29:48;5.70;72.60
1347;DHT22;667;48.796;9.480;2023-01-28T16:34:58;5.70;72.60
1347;DHT22;667;48.796;9.480;2023-01-28T16:37:24;5.70;72.60
1347;DHT22;667;48.796;9.480;2023-01-28T16:39:50;5.70;72.60
1347;DHT22;667;48.796;9.480;2023-01-28T16:42:15;5.70;72.50
1347;DHT22;667;48.796;9.480;2023-01-28T16:44:41;5.70;72.50
1347;DHT22;667;48.796;9.480;2023-01-28T16:47:07;5.70;72.50
1347;DHT22;667;48.796;9.480;2023-01-28T16:49:33;5.70;72.50
1347;DHT22;667;48.796;9.480;2023-01-28T16:52:00;5.70;72.40
1347;DHT22;667;48.796;9.480;2023-01-28T16:54:26;5.70;72.30
1347;DHT22;667;48.796;9.480;2023-01-28T16:56:53;5.70;72.30
1347;DHT22;667;48.796;9.480;2023-01-28T16:59:19;5.70;72.30
1347;DHT22;667;48.796;9.480;2023-01-28T17:01:45;5.70;72.30
1347;DHT22;667;48.796;9.480;2023-01-28T17:04:11;5.60;72.10
1347;DHT22;667;48.796;9.480;2023-01-28T17:06:38;5.70;72.30
1347;DHT22;667;48.796;9.480;2023-01-28T17:09:07;5.60;71.90
1347;DHT22;667;48.796;9.480;2023-01-28T17:11:33;5.60;71.90
1347;DHT22;667;48.796;9.480;2023-01-28T17:13:59;5.60;71.90
1347;DHT22;667;48.796;9.480;2023-01-28T17:16:25;5.60;72.00
1347;DHT22;667;48.796;9.480;2023-01-28T17:18:52;5.60;71.80
1347;DHT22;667;48.796;9.480;2023-01-28T17:21:18;5.60;71.70
1347;DHT22;667;48.796;9.480;2023-01-28T17:23:44;5.60;71.70
1347;DHT22;667;48.796;9.480;2023-01-28T17:26:12;5.60;71.80
1347;DHT22;667;48.796;9.480;2023-01-28T17:28:38;5.60;71.70
1347;DHT22;667;48.796;9.480;2023-01-28T17:31:12;5.60;72.40
1347;DHT22;667;48.796;9.480;2023-01-28T17:33:39;5.50;71.30
1347;DHT22;667;48.796;9.480;2023-01-28T17:36:05;5.50;71.40
1347;DHT22;667;48.796;9.480;2023-01-28T17:38:31;5.50;71.50
1347;DHT22;667;48.796;9.480;2023-01-28T17:41:04;5.50;71.60
1347;DHT22;667;48.796;9.480;2023-01-28T17:43:30;5.50;71.70
1347;DHT22;667;48.796;9.480;2023-01-28T17:45:56;5.50;71.40
1347;DHT22;667;48.796;9.480;2023-01-28T17:48:22;5.50;71.10
1347;DHT22;667;48.796;9.480;2023-01-28T17:50:48;5.50;71.00
1347;DHT22;667;48.796;9.480;2023-01-28T17:53:13;5.50;71.10
1347;DHT22;667;48.796;9.480;2023-01-28T17:55:39;5.50;71.30
1347;DHT22;667;48.796;9.480;2023-01-28T17:58:05;5.50;71.10
1347;DHT22;667;48.796;9.480;2023-01-28T18:00:31;5.50;71.00
1347;DHT22;667;48.796;9.480;2023-01-28T18:02:56;5.50;71.10
1347;DHT22;667;48.796;9.480;2023-01-28T18:05:22;5.50;71.20
1347;DHT22;667;48.796;9.480;2023-01-28T18:07:48;5.50;71.30
1347;DHT22;667;48.796;9.480;2023-01-28T18:10:15;5.50;71.50
1347;DHT22;667;48.796;9.480;2023-01-28T18:12:42;5.50;71.40
1347;DHT22;667;48.796;9.480;2023-01-28T18:15:08;5.50;71.40
1347;DHT22;667;48.796;9.480;2023-01-28T18:17:34;5.50;71.20
1347;DHT22;667;48.796;9.480;2023-01-28T18:19:59;5.50;71.00
1347;DHT22;667;48.796;9.480;2023-01-28T18:22:25;5.50;71.00
1347;DHT22;667;48.796;9.480;2023-01-28T18:24:50;5.50;71.10
1347;DHT22;667;48.796;9.480;2023-01-28T18:27:16;5.50;70.90
1347;DHT22;667;48.796;9.480;2023-01-28T18:29:42;5.40;70.70
1347;DHT22;667;48.796;9.480;2023-01-28T18:32:08;5.40;70.80
1347;DHT22;667;48.796;9.480;2023-01-28T18:34:33;5.40;71.70
1347;DHT22;667;48.796;9.480;2023-01-28T18:36:59;5.40;71.20
1347;DHT22;667;48.796;9.480;2023-01-28T18:39:27;5.40;71.30
1347;DHT22;667;48.796;9.480;2023-01-28T18:41:55;5.40;71.20
1347;DHT22;667;48.796;9.480;2023-01-28T18:44:25;5.40;70.90
1347;DHT22;667;48.796;9.480;2023-01-28T18:46:51;5.50;70.90
1347;DHT22;667;48.796;9.480;2023-01-28T18:49:17;5.40;70.80
1347;DHT22;667;48.796;9.480;2023-01-28T18:51:43;5.40;70.90
1347;DHT22;667;48.796;9.480;2023-01-28T18:54:10;5.40;70.90
1347;DHT22;667;48.796;9.480;2023-01-28T18:56:39;5.40;71.10
1347;DHT22;667;48.796;9.480;2023-01-28T18:59:06;5.40;71.40
1347;DHT22;667;48.796;9.480;2023-01-28T19:01:33;5.40;71.40